Time;durP1;ratioP1;P1;durP2;ratioP2;P2;SDS_P1;SDS_P2;PMS_P1;PMS_P2;Temp;Humidity;BMP_temperature;BMP_pressure;BME280_temperature;BME280_humidity;BME280_pressure;Samples;Min_cycle;Max_cycle;Signal;HPM_P1;HPM_P2
2022/06/06 00:01:34;;;;;;;2.50;1.80;;;15.40;99.90;;;;;;5011751;28;20041;-77
2022/06/06 00:04:00;;;;;;;2.55;1.77;;;15.40;99.90;;;;;;5010282;28;20088;-76
2022/06/06 00:06:26;;;;;;;4.95;2.13;;;15.20;99.90;;;;;;5018333;28;20493;-77
2022/06/06 00:08:52;;;;;;;4.40;2.00;;;15.10;99.90;;;;;;5012669;28;20053;-76
2022/06/06 00:11:17;;;;;;;3.13;2.08;;;15.00;99.90;;;;;;5010736;28;20090;-77
2022/06/06 00:13:45;;;;;;;2.65;1.95;;;15.10;99.90;;;;;;5009505;28;20679;-76
2022/06/06 00:16:11;;;;;;;2.72;2.03;;;15.00;99.90;;;;;;5015354;28;20022;-76
2022/06/06 00:18:38;;;;;;;3.03;2.03;;;15.10;99.90;;;;;;5011362;28;20040;-76
2022/06/06 00:21:06;;;;;;;2.53;2.13;;;15.10;99.90;;;;;;5011214;28;20051;-77
2022/06/06 00:23:32;;;;;;;3.30;2.00;;;15.10;99.90;;;;;;5010616;28;20443;-77
2022/06/06 00:25:57;;;;;;;3.22;1.90;;;15.10;99.90;;;;;;5007881;28;20026;-77
2022/06/06 00:28:23;;;;;;;2.03;1.83;;;14.90;99.90;;;;;;5008683;28;20044;-77
2022/06/06 00:30:54;;;;;;;4.32;1.83;;;14.90;99.90;;;;;;5007739;28;20042;-77
2022/06/06 00:36:04;;;;;;;3.97;2.42;;;14.90;99.90;;;;;;5010514;28;20064;-76
2022/06/06 00:38:29;;;;;;;1.95;1.83;;;14.90;99.90;;;;;;5010927;28;20026;-76
2022/06/06 00:40:55;;;;;;;1.98;1.88;;;14.80;99.90;;;;;;5010168;28;20064;-76
2022/06/06 00:43:21;;;;;;;4.93;2.10;;;14.80;99.90;;;;;;5010762;28;20053;-76
2022/06/06 00:45:57;;;;;;;2.72;2.20;;;14.80;99.90;;;;;;5012743;28;20034;-76
2022/06/06 00:48:28;;;;;;;3.75;2.13;;;14.80;99.90;;;;;;5011158;28;20038;-76
2022/06/06 00:50:59;;;;;;;4.90;2.42;;;14.80;99.90;;;;;;5006031;28;20034;-77
2022/06/06 00:53:39;;;;;;;4.05;2.20;;;14.90;99.90;;;;;;5012040;28;20026;-76
2022/06/06 00:56:11;;;;;;;4.53;2.40;;;14.90;99.90;;;;;;5007777;28;20445;-76
2022/06/06 00:58:40;;;;;;;1.90;1.80;;;14.80;99.90;;;;;;5011223;28;20179;-77
2022/06/06 01:01:06;;;;;;;3.15;1.85;;;14.70;99.90;;;;;;5004737;28;20041;-77
2022/06/06 01:03:34;;;;;;;1.70;1.52;;;14.70;99.90;;;;;;5010689;28;21079;-77
2022/06/06 01:06:00;;;;;;;3.85;2.03;;;14.50;99.90;;;;;;5006611;28;20128;-77
2022/06/06 01:08:27;;;;;;;1.55;1.45;;;14.40;99.90;;;;;;5007631;28;20038;-76
2022/06/06 01:10:52;;;;;;;1.83;1.55;;;14.30;99.90;;;;;;5009972;28;20036;-77
2022/06/06 01:13:22;;;;;;;1.65;1.55;;;14.20;99.90;;;;;;5010407;28;20112;-77
2022/06/06 01:16:14;;;;;;;1.95;1.65;;;14.30;99.90;;;;;;5007675;28;20054;-77
2022/06/06 01:18:51;;;;;;;3.60;1.65;;;14.30;99.90;;;;;;5014998;28;20030;-78
2022/06/06 01:21:53;;;;;;;2.63;1.85;;;14.30;99.90;;;;;;5008315;28;20404;-77
2022/06/06 01:24:22;;;;;;;2.10;1.90;;;14.40;99.90;;;;;;5010286;28;20590;-77
2022/06/06 01:27:03;;;;;;;2.25;2.05;;;14.40;99.90;;;;;;5010999;28;20072;-78
2022/06/06 01:29:34;;;;;;;3.45;2.10;;;14.40;99.90;;;;;;5013442;28;20026;-77
2022/06/06 01:32:10;;;;;;;3.40;2.40;;;14.20;99.90;;;;;;5009612;28;20068;-77
2022/06/06 01:34:38;;;;;;;3.00;2.03;;;14.00;99.90;;;;;;5008292;28;20038;-77
2022/06/06 01:37:23;;;;;;;3.80;2.15;;;13.90;99.90;;;;;;5009638;28;20034;-77
2022/06/06 01:39:49;;;;;;;2.63;2.40;;;14.00;99.90;;;;;;5010513;28;20064;-77
2022/06/06 01:42:46;;;;;;;2.53;2.33;;;14.00;99.90;;;;;;4994936;28;20128;-78
2022/06/06 01:45:30;;;;;;;3.97;3.25;;;14.00;99.90;;;;;;5002490;28;20046;-77
2022/06/06 01:48:19;;;;;;;2.40;2.20;;;14.00;99.90;;;;;;5010306;28;20022;-77
2022/06/06 01:50:45;;;;;;;4.68;2.50;;;14.10;99.90;;;;;;5011030;28;20128;-77
2022/06/06 01:53:15;;;;;;;3.50;2.30;;;14.10;99.90;;;;;;5008458;28;20461;-77
2022/06/06 01:55:43;;;;;;;2.42;2.08;;;14.10;99.90;;;;;;5016906;28;20037;-77
2022/06/06 01:58:11;;;;;;;;;;;14.10;99.90;;;;;;5012331;28;20101;-77
2022/06/06 02:00:38;;;;;;;;;;;14.10;99.90;;;;;;5013783;28;19897;-77
2022/06/06 02:03:04;;;;;;;3.05;2.53;;;14.10;99.90;;;;;;5010505;28;19925;-77
2022/06/06 02:05:30;;;;;;;3.13;2.15;;;14.00;99.90;;;;;;5014625;28;20046;-77
2022/06/06 02:07:56;;;;;;;2.15;1.95;;;13.90;99.90;;;;;;5010070;28;20034;-77
2022/06/06 02:10:22;;;;;;;3.45;2.28;;;13.80;99.90;;;;;;4991765;28;20038;-77
2022/06/06 02:12:48;;;;;;;2.20;2.00;;;13.70;99.90;;;;;;5012547;28;20037;-77
2022/06/06 02:15:17;;;;;;;2.53;2.03;;;13.70;99.90;;;;;;5010259;28;20516;-77
2022/06/06 02:17:43;;;;;;;1.75;1.65;;;13.60;99.90;;;;;;5016382;28;20064;-77
2022/06/06 02:20:11;;;;;;;3.13;1.70;;;13.50;99.90;;;;;;5002540;28;20131;-77
2022/06/06 02:22:37;;;;;;;4.20;1.90;;;13.60;99.90;;;;;;4991049;28;20037;-76
2022/06/06 02:25:04;;;;;;;1.60;1.50;;;13.60;99.90;;;;;;4981480;28;20769;-77
2022/06/06 02:27:29;;;;;;;5.20;2.42;;;13.60;99.90;;;;;;5003401;28;20097;-77
2022/06/06 02:29:55;;;;;;;2.33;2.13;;;13.60;99.90;;;;;;5002442;28;20038;-76
2022/06/06 02:32:21;;;;;;;6.20;2.15;;;13.60;99.90;;;;;;4979489;28;20043;-76
2022/06/06 02:34:47;;;;;;;4.55;1.85;;;13.60;99.90;;;;;;5002366;28;20033;-77
2022/06/06 02:37:13;;;;;;;2.70;2.10;;;13.50;99.90;;;;;;5006309;28;20033;-76
2022/06/06 02:39:38;;;;;;;13.23;2.58;;;13.40;99.90;;;;;;4998698;28;20117;-77
2022/06/06 02:42:05;;;;;;;1.42;1.30;;;13.30;99.90;;;;;;4998713;28;20038;-77
2022/06/06 02:44:31;;;;;;;36.05;2.63;;;13.20;99.90;;;;;;5004145;28;20042;-77
2022/06/06 02:46:57;;;;;;;1.83;1.10;;;12.90;99.90;;;;;;4999707;28;20045;-77
2022/06/06 02:49:23;;;;;;;1.40;1.30;;;12.90;99.90;;;;;;5000428;28;20031;-77
2022/06/06 02:51:48;;;;;;;1.10;1.10;;;12.90;99.90;;;;;;5003128;28;20030;-76
2022/06/06 02:54:14;;;;;;;3.13;1.30;;;13.00;99.90;;;;;;4984737;28;20045;-76
2022/06/06 02:56:40;;;;;;;1.75;1.27;;;13.00;99.90;;;;;;5001647;28;20362;-77
2022/06/06 02:59:07;;;;;;;1.90;1.80;;;13.10;99.90;;;;;;5008115;28;20030;-77
2022/06/06 03:01:33;;;;;;;1.60;1.50;;;13.00;99.90;;;;;;4966838;28;20045;-75
2022/06/06 03:03:59;;;;;;;2.80;2.20;;;13.10;99.90;;;;;;5007023;28;20037;-76
2022/06/06 03:06:56;;;;;;;3.97;1.90;;;13.00;99.90;;;;;;4999159;28;20066;-77
2022/06/06 03:09:28;;;;;;;;;;;12.90;99.90;;;;;;4986260;28;20632;-76
2022/06/06 03:12:17;;;;;;;12.45;1.80;;;12.90;99.90;;;;;;5005086;28;19914;-76
2022/06/06 03:14:52;;;;;;;3.95;1.50;;;12.60;99.90;;;;;;5004481;28;20038;-76
2022/06/06 03:21:25;;;;;;;61.60;4.65;;;12.00;99.90;;;;;;5003252;28;20627;-76
2022/06/06 03:23:56;;;;;;;8.98;2.00;;;12.00;99.90;;;;;;5002962;28;20416;-77
2022/06/06 03:26:49;;;;;;;56.08;4.13;;;12.10;99.90;;;;;;5007935;28;20038;-76
2022/06/06 03:29:38;;;;;;;34.03;2.78;;;12.00;99.90;;;;;;5005075;28;20033;-77
2022/06/06 03:32:36;;;;;;;2.38;2.00;;;11.90;99.90;;;;;;5004486;28;20030;-77
2022/06/06 03:35:12;;;;;;;2.78;1.80;;;12.10;99.90;;;;;;4988473;28;20781;-76
2022/06/06 03:37:47;;;;;;;4.03;1.75;;;12.30;99.90;;;;;;5007069;28;20037;-77
2022/06/06 03:40:18;;;;;;;2.75;2.25;;;12.30;99.90;;;;;;4986104;28;20065;-77
2022/06/06 03:42:50;;;;;;;1.75;1.60;;;12.40;99.90;;;;;;4997891;28;20109;-77
2022/06/06 03:45:19;;;;;;;2.33;1.80;;;12.50;99.90;;;;;;5000516;28;20044;-77
2022/06/06 03:48:23;;;;;;;1.83;1.73;;;12.60;99.90;;;;;;4999651;28;20097;-77
2022/06/06 03:51:22;;;;;;;1.80;1.70;;;12.70;99.90;;;;;;5002470;28;20038;-78
2022/06/06 03:53:54;;;;;;;1.85;1.73;;;12.80;99.90;;;;;;4989048;28;20053;-76
2022/06/06 03:56:55;;;;;;;2.90;1.50;;;12.90;99.90;;;;;;5002995;28;20464;-78
2022/06/06 03:59:22;;;;;;;1.60;1.50;;;13.00;99.90;;;;;;4984875;28;20037;-76
2022/06/06 04:01:50;;;;;;;2.25;1.35;;;13.10;99.90;;;;;;5001401;28;20062;-76
2022/06/06 04:04:18;;;;;;;1.58;1.20;;;13.00;99.90;;;;;;5004124;28;20042;-77
2022/06/06 04:06:46;;;;;;;1.23;1.20;;;13.00;99.90;;;;;;5009457;28;20125;-77
2022/06/06 04:09:11;;;;;;;1.08;1.08;;;12.90;99.90;;;;;;5002930;28;20371;-77
2022/06/06 04:12:07;;;;;;;13.60;2.13;;;13.00;99.90;;;;;;5000683;28;20537;-77
2022/06/06 04:15:01;;;;;;;1.10;1.10;;;12.90;99.90;;;;;;5004308;28;20101;-76
2022/06/06 04:18:04;;;;;;;0.90;0.90;;;12.90;99.90;;;;;;5007249;28;20032;-77
2022/06/06 04:20:55;;;;;;;1.00;1.00;;;13.00;99.90;;;;;;5010128;28;20056;-77
2022/06/06 04:23:46;;;;;;;1.15;1.15;;;13.10;99.90;;;;;;5007713;28;20615;-77
2022/06/06 04:26:22;;;;;;;1.50;1.40;;;13.30;99.90;;;;;;5003138;28;20033;-77
2022/06/06 04:29:08;;;;;;;2.78;1.75;;;13.30;99.90;;;;;;5006432;28;20030;-76
2022/06/06 04:31:55;;;;;;;1.70;1.60;;;13.40;99.90;;;;;;5002365;28;20061;-77
2022/06/06 04:34:27;;;;;;;1.75;1.65;;;13.50;99.90;;;;;;5004448;28;20057;-77
2022/06/06 04:37:05;;;;;;;1.92;1.83;;;13.60;99.90;;;;;;5005082;28;20038;-76
2022/06/06 04:39:30;;;;;;;;;;;13.60;99.90;;;;;;4999845;28;20030;-77
2022/06/06 04:42:07;;;;;;;1.95;1.77;;;13.70;99.90;;;;;;5002183;28;19924;-77
2022/06/06 04:44:42;;;;;;;2.30;2.00;;;13.80;99.90;;;;;;5002590;28;20128;-76
2022/06/06 04:47:21;;;;;;;3.60;2.40;;;13.90;99.90;;;;;;5002129;28;20030;-76
2022/06/06 04:49:47;;;;;;;2.72;2.50;;;14.10;99.90;;;;;;5002451;28;20057;-76
2022/06/06 04:52:15;;;;;;;3.58;2.42;;;14.20;99.90;;;;;;5001035;28;20039;-77
2022/06/06 04:54:44;;;;;;;2.33;2.03;;;14.20;99.90;;;;;;5000527;28;20034;-77
2022/06/06 04:57:11;;;;;;;3.72;2.55;;;14.30;99.90;;;;;;5001018;28;20061;-77
2022/06/06 04:59:38;;;;;;;3.63;2.15;;;14.30;99.90;;;;;;5004763;28;20503;-77
2022/06/06 05:02:05;;;;;;;4.55;2.35;;;14.40;99.90;;;;;;5002078;28;20447;-77
2022/06/06 05:04:31;;;;;;;3.90;2.10;;;14.50;99.90;;;;;;5004826;28;20038;-78
2022/06/06 05:07:44;;;;;;;2.78;2.13;;;14.70;99.90;;;;;;5005903;28;20030;-78
2022/06/06 05:10:29;;;;;;;2.88;2.17;;;14.70;99.90;;;;;;4986290;28;20037;-77
2022/06/06 05:13:50;;;;;;;4.55;2.50;;;14.80;99.90;;;;;;5005920;28;20556;-78
2022/06/06 05:16:16;;;;;;;2.85;2.35;;;14.80;99.90;;;;;;4967824;28;20046;-77
2022/06/06 05:18:54;;;;;;;2.55;2.35;;;14.70;99.90;;;;;;4970107;28;20038;-78
2022/06/06 05:21:47;;;;;;;5.07;2.92;;;14.80;99.90;;;;;;4993250;28;21666;-77
2022/06/06 05:24:45;;;;;;;4.82;2.70;;;15.20;99.90;;;;;;5005026;28;20120;-77
2022/06/06 05:27:19;;;;;;;2.80;2.60;;;15.40;99.90;;;;;;4985483;28;20110;-77
2022/06/06 05:30:12;;;;;;;2.95;2.70;;;15.50;99.90;;;;;;5005916;28;20112;-77
2022/06/06 05:33:12;;;;;;;2.90;2.60;;;15.80;99.90;;;;;;5004800;28;20056;-77
2022/06/06 05:36:14;;;;;;;3.47;3.10;;;15.90;99.90;;;;;;4996799;28;20032;-78
2022/06/06 05:39:02;;;;;;;3.38;2.50;;;16.20;99.90;;;;;;5009088;28;20197;-77
2022/06/06 05:41:36;;;;;;;2.90;2.50;;;16.30;99.90;;;;;;5009226;28;20044;-77
2022/06/06 05:44:07;;;;;;;4.50;2.78;;;16.40;99.90;;;;;;5002777;28;20304;-77
2022/06/06 05:46:55;;;;;;;3.15;2.85;;;16.40;99.90;;;;;;4998132;28;20034;-78
2022/06/06 05:49:42;;;;;;;2.85;2.65;;;16.50;99.90;;;;;;4986218;28;20040;-78
2022/06/06 05:52:16;;;;;;;3.13;2.67;;;16.60;99.90;;;;;;5000285;28;20426;-78
2022/06/06 05:54:48;;;;;;;2.83;2.53;;;16.60;99.90;;;;;;5005311;28;20065;-77
2022/06/06 05:57:32;;;;;;;5.22;2.85;;;16.60;99.90;;;;;;5010723;28;20034;-78
2022/06/06 06:00:29;;;;;;;3.90;2.80;;;16.70;99.90;;;;;;5001652;28;20038;-77
2022/06/06 06:03:23;;;;;;;3.33;2.45;;;16.80;99.90;;;;;;4977928;28;20177;-78
2022/06/06 06:06:04;;;;;;;3.72;2.80;;;17.00;99.90;;;;;;5004307;28;20026;-78
2022/06/06 06:08:53;;;;;;;3.15;2.47;;;16.80;99.90;;;;;;4999442;28;20037;-77
2022/06/06 06:11:42;;;;;;;4.30;2.85;;;16.90;99.90;;;;;;4989085;28;20026;-77
2022/06/06 06:14:23;;;;;;;3.97;2.58;;;16.90;99.90;;;;;;5002142;28;20061;-78
2022/06/06 06:16:55;;;;;;;3.28;2.60;;;17.00;99.90;;;;;;5006309;28;20493;-78
2022/06/06 06:19:29;;;;;;;4.38;2.50;;;17.00;99.90;;;;;;4985441;28;20037;-77
2022/06/06 06:21:57;;;;;;;5.00;2.75;;;17.10;99.90;;;;;;4990315;28;20065;-78
2022/06/06 06:24:25;;;;;;;;;;;17.10;99.90;;;;;;5002584;28;20186;-78
2022/06/06 06:26:54;;;;;;;5.47;3.03;;;17.20;99.90;;;;;;5003245;28;20439;-77
2022/06/06 06:29:20;;;;;;;3.65;3.08;;;17.30;99.90;;;;;;5005192;28;20073;-78
2022/06/06 06:31:52;;;;;;;3.85;2.50;;;17.40;99.90;;;;;;5000457;28;20053;-77
2022/06/06 06:34:35;;;;;;;4.45;2.70;;;17.00;99.90;;;;;;5002727;28;20038;-77
2022/06/06 06:37:19;;;;;;;4.40;2.72;;;17.00;99.90;;;;;;5005695;28;20026;-77
2022/06/06 06:39:54;;;;;;;4.78;2.47;;;17.00;99.90;;;;;;5005673;28;20057;-76
2022/06/06 06:42:43;;;;;;;4.38;2.42;;;17.30;99.90;;;;;;5004085;28;20474;-76
2022/06/06 06:45:22;;;;;;;3.75;2.50;;;17.30;99.90;;;;;;5003021;28;20034;-77
2022/06/06 06:47:53;;;;;;;3.67;2.55;;;17.30;99.90;;;;;;5002540;28;20045;-78
2022/06/06 06:50:32;;;;;;;2.40;2.10;;;17.40;99.90;;;;;;4982364;28;20041;-76
2022/06/06 06:53:22;;;;;;;2.90;2.60;;;17.50;99.90;;;;;;5001249;28;20026;-77
2022/06/06 06:56:15;;;;;;;4.28;2.47;;;17.40;99.90;;;;;;5004990;28;20072;-77
2022/06/06 06:59:08;;;;;;;2.65;2.40;;;17.60;99.90;;;;;;5001846;28;20069;-78
2022/06/06 07:11:03;;;;;;;2.75;2.35;;;17.90;99.90;;;;;;4999482;28;20507;-77
2022/06/06 07:13:34;;;;;;;3.53;2.15;;;17.80;99.90;;;;;;5002436;28;20029;-77
2022/06/06 07:16:18;;;;;;;3.13;2.25;;;17.80;99.90;;;;;;5005358;28;20026;-78
2022/06/06 07:19:06;;;;;;;2.60;2.40;;;17.50;99.90;;;;;;5002359;28;20065;-78
2022/06/06 07:21:34;;;;;;;4.63;2.50;;;17.60;99.90;;;;;;4992755;28;20125;-78
2022/06/06 07:24:05;;;;;;;4.38;2.30;;;17.80;99.90;;;;;;5004267;28;20050;-78
2022/06/06 07:26:32;;;;;;;2.60;2.40;;;17.80;99.90;;;;;;5005378;28;20045;-78
2022/06/06 07:28:58;;;;;;;2.40;1.98;;;17.90;99.90;;;;;;5005764;28;20385;-78
2022/06/06 07:31:33;;;;;;;2.35;2.15;;;17.80;99.90;;;;;;5006199;28;20042;-77
2022/06/06 07:34:29;;;;;;;3.42;2.50;;;17.80;99.90;;;;;;4980448;28;20038;-78
2022/06/06 07:37:06;;;;;;;2.30;2.10;;;17.70;99.90;;;;;;5001869;28;20123;-78
2022/06/06 07:40:02;;;;;;;2.50;2.05;;;17.70;99.90;;;;;;5005321;28;20030;-78
2022/06/06 07:42:31;;;;;;;2.45;2.20;;;17.70;99.90;;;;;;4988411;28;20381;-78
2022/06/06 07:45:06;;;;;;;2.67;2.10;;;17.80;99.90;;;;;;4989726;28;20061;-78
2022/06/06 07:48:15;;;;;;;2.60;2.25;;;17.90;99.90;;;;;;5010560;28;20029;-78
2022/06/06 07:50:57;;;;;;;2.53;2.33;;;18.10;99.90;;;;;;4991892;28;20480;-79
2022/06/06 07:53:57;;;;;;;2.95;2.72;;;18.50;99.90;;;;;;4991442;28;21682;-78
2022/06/06 07:56:40;;;;;;;3.90;2.55;;;18.70;99.90;;;;;;5006507;28;20025;-78
2022/06/06 07:59:57;;;;;;;4.85;2.28;;;18.80;99.90;;;;;;5001937;28;20156;-79
2022/06/06 08:02:50;;;;;;;2.50;2.30;;;19.40;99.90;;;;;;5003120;28;20058;-80
2022/06/06 08:05:34;;;;;;;3.95;2.33;;;19.60;99.90;;;;;;5004191;28;20046;-80
2022/06/06 08:08:12;;;;;;;3.08;2.28;;;19.50;99.90;;;;;;5007745;28;20026;-82
2022/06/06 08:10:46;;;;;;;3.03;2.30;;;19.70;99.90;;;;;;5009674;28;20096;-79
2022/06/06 08:13:24;;;;;;;3.70;2.40;;;19.40;99.90;;;;;;5005104;28;20493;-78
2022/06/06 08:16:11;;;;;;;4.80;2.53;;;19.20;99.90;;;;;;5005503;28;20476;-79
2022/06/06 08:19:23;;;;;;;4.72;2.55;;;19.40;99.90;;;;;;5009064;28;20025;-78
2022/06/06 08:21:50;;;;;;;3.13;2.63;;;19.80;99.90;;;;;;5008585;28;20135;-79
2022/06/06 08:24:26;;;;;;;4.18;2.40;;;19.90;99.90;;;;;;5008735;28;20045;-79
2022/06/06 08:26:55;;;;;;;4.13;2.50;;;20.10;99.90;;;;;;5009328;28;20034;-78
2022/06/06 08:29:22;;;;;;;4.05;2.17;;;20.30;99.90;;;;;;5006142;28;20068;-79
2022/06/06 08:31:48;;;;;;;2.85;2.30;;;20.40;99.90;;;;;;5003706;28;20061;-79
2022/06/06 08:34:14;;;;;;;2.80;2.33;;;20.80;99.90;;;;;;5005965;28;20045;-78
2022/06/06 08:37:00;;;;;;;2.80;2.47;;;21.00;99.90;;;;;;5005756;28;20053;-80
2022/06/06 08:39:37;;;;;;;2.38;2.20;;;20.70;99.90;;;;;;5003240;28;20412;-79
2022/06/06 08:42:09;;;;;;;3.03;2.20;;;20.90;99.90;;;;;;5006651;28;20029;-79
2022/06/06 08:45:07;;;;;;;2.78;2.10;;;21.20;99.90;;;;;;5008468;28;20131;-79
2022/06/06 08:48:03;;;;;;;4.47;2.95;;;21.40;99.90;;;;;;5005075;28;20022;-79
2022/06/06 08:51:12;;;;;;;2.28;2.08;;;21.40;99.90;;;;;;5003149;28;20030;-80
2022/06/06 08:54:02;;;;;;;2.20;2.00;;;21.40;99.90;;;;;;5005542;28;20104;-78
2022/06/06 08:56:46;;;;;;;6.00;2.22;;;21.20;99.90;;;;;;5004803;28;20042;-79
2022/06/06 08:59:53;;;;;;;5.43;2.60;;;21.10;99.90;;;;;;4986417;28;20512;-80
2022/06/06 09:02:56;;;;;;;2.30;2.05;;;21.60;99.90;;;;;;5003877;28;20543;-78
2022/06/06 09:05:46;;;;;;;2.53;2.33;;;21.20;99.40;;;;;;5005172;28;20064;-79
2022/06/06 09:08:46;;;;;;;3.85;2.55;;;21.00;99.90;;;;;;5004091;28;20095;-78
2022/06/06 09:11:42;;;;;;;2.65;2.45;;;21.70;99.90;;;;;;4986984;28;20041;-78
2022/06/06 09:14:27;;;;;;;3.60;2.15;;;21.90;99.90;;;;;;4990286;28;20026;-79
2022/06/06 09:17:17;;;;;;;3.45;2.50;;;22.30;99.90;;;;;;4985653;28;20038;-78
2022/06/06 09:20:03;;;;;;;2.67;2.17;;;22.50;97.50;;;;;;4982085;28;20456;-78
2022/06/06 09:23:04;;;;;;;2.43;2.23;;;22.00;97.30;;;;;;5008904;28;20497;-78
2022/06/06 09:25:57;;;;;;;4.47;2.47;;;22.00;99.90;;;;;;5006055;28;20030;-77
2022/06/06 09:28:46;;;;;;;4.38;2.55;;;21.70;97.00;;;;;;4983802;28;20453;-76
2022/06/06 09:31:18;;;;;;;2.40;2.20;;;21.80;95.20;;;;;;5003893;28;20046;-78
2022/06/06 09:33:49;;;;;;;4.32;2.40;;;22.20;99.90;;;;;;5001364;28;20030;-78
2022/06/06 09:36:29;;;;;;;2.20;2.00;;;22.20;94.00;;;;;;5001846;28;20033;-78
2022/06/06 09:39:13;;;;;;;2.15;1.95;;;21.50;94.40;;;;;;5002513;28;20034;-78
2022/06/06 09:42:02;;;;;;;4.30;3.00;;;21.50;94.20;;;;;;5003870;28;20046;-79
2022/06/06 09:44:50;;;;;;;4.20;2.22;;;21.60;97.40;;;;;;4987880;28;20041;-78
2022/06/06 09:47:35;;;;;;;3.97;2.50;;;21.10;95.30;;;;;;5006949;28;20049;-79
2022/06/06 09:50:21;;;;;;;2.80;2.50;;;21.20;99.40;;;;;;5007074;28;20068;-78
2022/06/06 09:53:26;;;;;;;3.45;2.42;;;21.30;99.90;;;;;;5003530;28;20042;-78
2022/06/06 09:59:13;;;;;;;2.97;2.40;;;22.20;96.20;;;;;;5004249;28;20037;-78
2022/06/06 10:01:45;;;;;;;3.15;2.20;;;22.20;97.90;;;;;;5005056;28;20525;-79
2022/06/06 10:04:32;;;;;;;2.78;2.13;;;22.40;97.30;;;;;;5004831;28;20042;-79
2022/06/06 10:07:29;;;;;;;1.95;1.80;;;22.40;92.60;;;;;;5003225;28;20029;-78
2022/06/06 10:10:23;;;;;;;4.45;2.10;;;22.90;93.50;;;;;;5004230;28;20061;-79
2022/06/06 10:13:25;;;;;;;2.25;1.98;;;22.60;86.40;;;;;;4990825;28;20489;-78
2022/06/06 10:16:18;;;;;;;2.05;1.95;;;22.60;84.00;;;;;;5001684;28;20027;-78
2022/06/06 10:19:01;;;;;;;4.05;2.35;;;22.80;90.90;;;;;;5006035;28;20030;-78
2022/06/06 10:21:45;;;;;;;2.17;2.00;;;22.50;92.50;;;;;;5004670;28;20093;-80
2022/06/06 10:24:14;;;;;;;2.40;2.10;;;22.70;89.80;;;;;;5005811;28;20090;-80
2022/06/06 10:26:52;;;;;;;3.35;2.25;;;22.90;91.90;;;;;;5002196;28;22195;-80
2022/06/06 10:32:58;;;;;;;2.60;2.40;;;22.70;87.40;;;;;;5010104;28;19921;-79
2022/06/06 10:35:42;;;;;;;2.20;1.90;;;22.30;90.60;;;;;;5004243;28;20044;-78
2022/06/06 10:38:49;;;;;;;2.47;2.28;;;22.50;91.90;;;;;;5006070;28;20033;-78
2022/06/06 10:41:36;;;;;;;2.53;2.05;;;23.00;92.80;;;;;;4944796;28;20121;-79
2022/06/06 10:44:15;;;;;;;2.45;1.88;;;23.50;88.90;;;;;;4947438;28;20054;-79
2022/06/06 10:46:46;;;;;;;2.70;2.22;;;23.20;86.70;;;;;;4987978;28;20104;-78
2022/06/06 10:49:39;;;;;;;3.08;1.80;;;23.10;85.20;;;;;;4987704;28;20049;-79
2022/06/06 10:52:08;;;;;;;2.47;2.10;;;23.00;82.40;;;;;;5004788;28;20346;-78
2022/06/06 10:55:04;;;;;;;2.13;1.92;;;22.70;76.60;;;;;;5004671;28;20034;-78
2022/06/06 10:58:00;;;;;;;1.70;1.60;;;22.60;76.20;;;;;;5007649;28;20053;-78
2022/06/06 11:00:35;;;;;;;2.38;1.90;;;22.50;74.50;;;;;;5004517;28;20026;-78
2022/06/06 11:03:15;;;;;;;0.90;0.90;;;22.60;80.90;;;;;;5002435;28;20041;-78
2022/06/06 11:06:02;;;;;;;3.72;2.10;;;22.40;81.20;;;;;;5004539;28;20496;-79
2022/06/06 11:08:43;;;;;;;3.03;1.85;;;22.40;85.50;;;;;;5005582;28;20033;-78
2022/06/06 11:11:20;;;;;;;3.20;2.10;;;22.30;83.00;;;;;;4987339;28;20050;-78
2022/06/06 11:14:20;;;;;;;1.80;1.70;;;22.20;91.20;;;;;;5004162;28;20036;-79
2022/06/06 11:17:01;;;;;;;2.58;1.90;;;22.30;78.90;;;;;;5011099;28;20112;-79
2022/06/06 11:20:02;;;;;;;2.15;1.95;;;22.20;82.00;;;;;;5010974;28;20044;-80
2022/06/06 11:22:51;;;;;;;2.13;1.55;;;22.60;84.70;;;;;;5005309;28;20030;-79
2022/06/06 11:25:20;;;;;;;2.15;1.63;;;22.50;82.80;;;;;;4992565;28;20058;-79
2022/06/06 11:28:13;;;;;;;2.30;2.08;;;22.20;83.80;;;;;;5013687;28;20497;-79
2022/06/06 11:30:58;;;;;;;2.42;1.90;;;22.40;81.80;;;;;;5010386;28;20754;-80
2022/06/06 11:33:30;;;;;;;1.92;1.73;;;22.10;66.60;;;;;;5007564;28;20026;-80
2022/06/06 11:36:08;;;;;;;3.17;2.85;;;22.10;80.10;;;;;;5007171;28;20033;-79
2022/06/06 11:38:52;;;;;;;2.60;1.95;;;22.00;74.20;;;;;;5009151;28;20026;-79
2022/06/06 11:41:36;;;;;;;1.70;1.60;;;22.30;75.80;;;;;;4991041;28;20053;-80
2022/06/06 11:44:32;;;;;;;2.20;1.92;;;22.60;77.00;;;;;;5009009;28;20038;-80
2022/06/06 11:47:16;;;;;;;1.95;1.80;;;22.90;84.80;;;;;;5006173;28;20036;-79
2022/06/06 11:49:56;;;;;;;2.33;1.70;;;23.00;80.00;;;;;;5007109;28;20030;-78
2022/06/06 11:52:44;;;;;;;2.58;2.13;;;22.90;68.00;;;;;;5006098;28;20038;-79
2022/06/06 11:55:13;;;;;;;2.25;1.75;;;22.60;73.70;;;;;;4991262;28;20076;-78
2022/06/06 11:58:03;;;;;;;2.80;1.80;;;22.50;72.00;;;;;;4990318;28;20223;-79
2022/06/06 12:01:01;;;;;;;2.00;1.52;;;22.50;74.60;;;;;;5006032;28;20034;-78
2022/06/06 12:03:32;;;;;;;2.08;1.60;;;22.50;72.30;;;;;;5009539;28;20038;-78
2022/06/06 12:06:13;;;;;;;2.28;1.60;;;22.50;75.90;;;;;;4992874;28;20038;-78
2022/06/06 12:08:50;;;;;;;1.90;1.80;;;22.70;74.00;;;;;;5010785;28;20034;-79
2022/06/06 12:11:34;;;;;;;2.30;1.90;;;22.90;81.30;;;;;;5010605;28;20048;-79
2022/06/06 12:14:34;;;;;;;2.97;1.85;;;23.00;76.00;;;;;;4994348;28;20120;-78
2022/06/06 12:17:00;;;;;;;1.90;1.80;;;23.20;70.40;;;;;;5007770;28;20470;-78
2022/06/06 12:19:57;;;;;;;1.77;1.67;;;22.80;74.60;;;;;;5007128;28;20026;-79
2022/06/06 12:22:40;;;;;;;2.00;1.70;;;22.50;73.40;;;;;;5011528;28;20485;-78
2022/06/06 12:25:47;;;;;;;1.77;1.67;;;22.70;72.80;;;;;;5007691;28;20050;-79
2022/06/06 12:28:47;;;;;;;1.98;1.88;;;22.70;75.30;;;;;;4990197;28;20049;-78
2022/06/06 12:31:36;;;;;;;1.98;1.65;;;22.60;75.90;;;;;;5006026;28;20124;-77
2022/06/06 12:34:22;;;;;;;3.47;1.80;;;22.50;78.70;;;;;;5007717;28;20044;-78
2022/06/06 12:37:09;;;;;;;2.67;1.92;;;22.50;73.20;;;;;;5005362;28;20037;-79
2022/06/06 12:39:43;;;;;;;3.20;1.80;;;22.70;74.90;;;;;;4988149;28;20049;-79
2022/06/06 12:42:16;;;;;;;3.88;1.90;;;22.70;70.60;;;;;;5007688;28;20084;-78
2022/06/06 12:44:57;;;;;;;2.00;1.80;;;22.60;79.60;;;;;;5005332;28;20077;-79
2022/06/06 12:47:44;;;;;;;1.73;1.63;;;22.70;78.40;;;;;;5005381;28;20393;-79
2022/06/06 12:50:26;;;;;;;2.55;2.00;;;22.70;84.30;;;;;;5009327;28;20030;-79
2022/06/06 12:53:15;;;;;;;5.00;2.25;;;22.60;77.10;;;;;;4985984;28;20038;-80
2022/06/06 12:56:17;;;;;;;1.77;1.67;;;22.60;76.80;;;;;;5002996;28;20109;-79
2022/06/06 12:59:18;;;;;;;2.00;1.80;;;22.50;70.50;;;;;;4991047;28;20026;-79
2022/06/06 13:02:18;;;;;;;2.22;2.00;;;22.40;73.30;;;;;;4966099;28;20046;-79
2022/06/06 13:05:05;;;;;;;2.03;1.83;;;22.60;74.50;;;;;;5007573;28;20038;-78
2022/06/06 13:07:43;;;;;;;3.20;1.75;;;22.70;79.10;;;;;;5009137;28;20053;-79
2022/06/06 13:10:27;;;;;;;1.90;1.80;;;22.90;77.40;;;;;;5005945;28;20563;-78
2022/06/06 13:12:52;;;;;;;2.55;1.75;;;23.00;76.50;;;;;;5003218;28;20512;-78
2022/06/06 13:15:41;;;;;;;1.90;1.80;;;23.00;77.10;;;;;;5006414;28;20038;-79
2022/06/06 13:18:57;;;;;;;1.92;1.70;;;23.00;72.90;;;;;;5005523;28;20038;-79
2022/06/06 13:22:08;;;;;;;1.70;1.60;;;22.90;70.90;;;;;;4949212;28;20097;-79
2022/06/06 13:24:46;;;;;;;1.88;1.73;;;23.00;68.70;;;;;;4944563;28;20054;-78
2022/06/06 13:27:52;;;;;;;1.70;1.60;;;22.80;67.20;;;;;;5000684;28;20056;-79
2022/06/06 13:30:30;;;;;;;3.27;1.87;;;22.80;71.60;;;;;;5000033;28;20041;-79
2022/06/06 13:33:13;;;;;;;1.88;1.77;;;22.70;67.20;;;;;;5002032;28;20053;-79
2022/06/06 13:36:05;;;;;;;1.95;1.80;;;22.90;70.50;;;;;;5004538;28;20030;-79
2022/06/06 13:38:49;;;;;;;1.90;1.80;;;22.80;68.00;;;;;;5003690;28;20029;-79
2022/06/06 13:41:24;;;;;;;2.08;1.77;;;23.00;74.40;;;;;;5001146;28;20030;-78
2022/06/06 13:43:57;;;;;;;1.80;1.70;;;23.20;73.70;;;;;;5002460;28;20048;-79
2022/06/06 13:46:56;;;;;;;2.40;1.70;;;23.40;80.30;;;;;;5000945;28;20038;-78
2022/06/06 13:49:27;;;;;;;2.17;1.80;;;23.40;68.80;;;;;;4998581;28;20038;-79
2022/06/06 13:52:16;;;;;;;2.50;2.00;;;23.40;69.50;;;;;;5003033;28;20041;-78
2022/06/06 13:54:42;;;;;;;2.03;1.88;;;23.40;67.20;;;;;;5003088;28;20038;-78
2022/06/06 13:57:19;;;;;;;2.03;1.80;;;23.40;70.40;;;;;;5003727;28;20057;-79
2022/06/06 14:00:10;;;;;;;2.05;1.95;;;23.30;66.90;;;;;;5006902;28;20034;-78
2022/06/06 14:03:03;;;;;;;2.17;2.00;;;23.40;68.60;;;;;;5001172;28;20041;-78
2022/06/06 14:06:05;;;;;;;4.20;1.90;;;23.50;70.20;;;;;;4992688;28;20061;-78
2022/06/06 14:08:53;;;;;;;3.97;1.67;;;23.60;67.20;;;;;;5003448;28;20037;-78
2022/06/06 14:11:51;;;;;;;1.65;1.52;;;23.40;70.00;;;;;;4998393;28;20049;-78
2022/06/06 14:14:19;;;;;;;2.17;1.67;;;23.30;70.20;;;;;;4962033;28;20037;-79
2022/06/06 14:16:49;;;;;;;;;;;23.40;70.00;;;;;;5006733;28;20037;-78
2022/06/06 14:19:21;;;;;;;2.00;1.75;;;23.40;71.80;;;;;;5005587;28;19924;-78